BWA238 TTPP-SYEC
Flight info
| Callsign | BWA238 |
|---|---|
| Flight time | 1h 20m |
| Altitude | 17000 |
| Route | POS DCT VOKAV |
| Aircraft | AT76/M-SDFGIRY/S |
Departure
| Time | 2026-05-01 12:04 |
|---|---|
| Airport | Piarco International Airport (TTPP) |
Arrival
| Time | 2026-05-01 13:25 |
|---|---|
| Airport | Eugene F. Correia International Airport (SYEC) |
| Time | Latitude | Longitude | Altitude | Speed | Heading |
|---|---|---|---|---|---|
| 2026-05-01 11:33 | 10.60057 | -61.34056 | 48 ft | 0 kts | 147° |
| 2026-05-01 11:55 | 10.60054 | -61.34054 | 48 ft | 0 kts | 147° |
| 2026-05-01 11:57 | 10.60053 | -61.34054 | 48 ft | 0 kts | 156° |
| 2026-05-01 11:57 | 10.60052 | -61.34055 | 48 ft | 0 kts | 175° |
| 2026-05-01 11:57 | 10.60050 | -61.34058 | 48 ft | 1 kts | 213° |
| 2026-05-01 11:57 | 10.60051 | -61.34070 | 46 ft | 5 kts | 274° |
| 2026-05-01 11:58 | 10.60064 | -61.34113 | 48 ft | 5 kts | 289° |
| 2026-05-01 11:58 | 10.60078 | -61.34152 | 44 ft | 7 kts | 287° |
| 2026-05-01 11:58 | 10.60036 | -61.34176 | 45 ft | 6 kts | 182° |
| 2026-05-01 11:59 | 10.59990 | -61.34176 | 48 ft | 7 kts | 179° |
| 2026-05-01 11:59 | 10.59934 | -61.34174 | 48 ft | 9 kts | 180° |
| 2026-05-01 11:59 | 10.59872 | -61.34175 | 46 ft | 9 kts | 182° |
| 2026-05-01 12:00 | 10.59738 | -61.34177 | 48 ft | 9 kts | 193° |
| 2026-05-01 12:00 | 10.59709 | -61.34221 | 48 ft | 8 kts | 253° |
| 2026-05-01 12:00 | 10.59708 | -61.34339 | 48 ft | 4 kts | 270° |
| 2026-05-01 12:01 | 10.59708 | -61.34348 | 48 ft | 3 kts | 269° |
| 2026-05-01 12:01 | 10.59708 | -61.34382 | 48 ft | 6 kts | 269° |
| 2026-05-01 12:01 | 10.59706 | -61.34431 | 45 ft | 8 kts | 267° |
| 2026-05-01 12:01 | 10.59702 | -61.34494 | 48 ft | 10 kts | 255° |
| 2026-05-01 12:02 | 10.59653 | -61.34527 | 48 ft | 9 kts | 182° |
| 2026-05-01 12:02 | 10.59629 | -61.34528 | 48 ft | 0 kts | 180° |
| 2026-05-01 12:02 | 10.59628 | -61.34528 | 48 ft | 0 kts | 180° |
| 2026-05-01 12:03 | 10.59597 | -61.34527 | 48 ft | 8 kts | 182° |
| 2026-05-01 12:03 | 10.59544 | -61.34519 | 45 ft | 6 kts | 134° |
| 2026-05-01 12:03 | 10.59536 | -61.34478 | 45 ft | 0 kts | 88° |
| 2026-05-01 12:03 | 10.59536 | -61.34457 | 46 ft | 19 kts | 89° |
| 2026-05-01 12:04 | 10.59537 | -61.34103 | 48 ft | 79 kts | 90° |
| 2026-05-01 12:04 | 10.59537 | -61.33359 | 53 ft | 128 kts | 90° |
| 2026-05-01 12:04 | 10.59537 | -61.32459 | 545 ft | 123 kts | 91° |
| 2026-05-01 12:04 | 10.59535 | -61.31593 | 986 ft | 124 kts | 90° |
| 2026-05-01 12:05 | 10.59527 | -61.30722 | 1315 ft | 124 kts | 91° |
| 2026-05-01 12:05 | 10.59705 | -61.28690 | 1640 ft | 154 kts | 86° |
| 2026-05-01 12:05 | 10.59758 | -61.27602 | 1963 ft | 157 kts | 86° |
| 2026-05-01 12:06 | 10.59786 | -61.26421 | 2045 ft | 175 kts | 89° |
| 2026-05-01 12:06 | 10.59351 | -61.25279 | 2299 ft | 182 kts | 135° |
| 2026-05-01 12:06 | 10.58199 | -61.24772 | 2675 ft | 183 kts | 163° |
| 2026-05-01 12:06 | 10.56981 | -61.24457 | 3079 ft | 179 kts | 160° |
| 2026-05-01 12:07 | 10.55801 | -61.24071 | 3398 ft | 178 kts | 156° |
| 2026-05-01 12:07 | 10.54615 | -61.23640 | 3717 ft | 179 kts | 155° |
| 2026-05-01 12:07 | 10.53474 | -61.23133 | 4002 ft | 180 kts | 150° |
| 2026-05-01 12:07 | 10.52377 | -61.22524 | 4302 ft | 180 kts | 146° |
| 2026-05-01 12:08 | 10.51332 | -61.21826 | 4590 ft | 181 kts | 142° |
| 2026-05-01 12:08 | 10.50326 | -61.21057 | 4878 ft | 182 kts | 139° |
| 2026-05-01 12:08 | 10.49345 | -61.20247 | 5175 ft | 182 kts | 139° |
| 2026-05-01 12:08 | 10.48364 | -61.19424 | 5456 ft | 183 kts | 139° |
| 2026-05-01 12:09 | 10.47381 | -61.18590 | 5728 ft | 185 kts | 138° |
| 2026-05-01 12:09 | 10.46392 | -61.17750 | 6001 ft | 186 kts | 139° |
| 2026-05-01 12:09 | 10.45387 | -61.16916 | 6267 ft | 187 kts | 140° |
| 2026-05-01 12:09 | 10.44372 | -61.16082 | 6535 ft | 188 kts | 140° |
| 2026-05-01 12:10 | 10.43682 | -61.15515 | 6700 ft | 190 kts | 140° |
| 2026-05-01 12:10 | 10.41620 | -61.13823 | 7223 ft | 192 kts | 140° |
| 2026-05-01 12:10 | 10.40580 | -61.12968 | 7471 ft | 193 kts | 140° |
| 2026-05-01 12:11 | 10.38481 | -61.11251 | 7963 ft | 195 kts | 140° |
| 2026-05-01 12:11 | 10.37423 | -61.10384 | 8193 ft | 197 kts | 140° |
| 2026-05-01 12:11 | 10.36357 | -61.09509 | 8433 ft | 197 kts | 140° |
| 2026-05-01 12:12 | 10.35286 | -61.08632 | 8669 ft | 198 kts | 140° |
| 2026-05-01 12:12 | 10.34210 | -61.07750 | 8891 ft | 200 kts | 140° |
| 2026-05-01 12:12 | 10.33126 | -61.06863 | 9125 ft | 200 kts | 140° |
| 2026-05-01 12:12 | 10.32041 | -61.05975 | 9338 ft | 201 kts | 141° |
| 2026-05-01 12:13 | 10.30937 | -61.05071 | 9566 ft | 202 kts | 141° |
| 2026-05-01 12:13 | 10.29845 | -61.04176 | 9796 ft | 202 kts | 141° |
| 2026-05-01 12:13 | 10.28751 | -61.03280 | 10026 ft | 202 kts | 141° |
| 2026-05-01 12:13 | 10.27659 | -61.02385 | 10257 ft | 202 kts | 141° |
| 2026-05-01 12:14 | 10.26564 | -61.01488 | 10474 ft | 203 kts | 141° |
| 2026-05-01 12:14 | 10.25463 | -61.00587 | 10699 ft | 203 kts | 141° |
| 2026-05-01 12:14 | 10.24362 | -60.99685 | 10914 ft | 203 kts | 141° |
| 2026-05-01 12:14 | 10.23260 | -60.98784 | 11123 ft | 204 kts | 141° |
| 2026-05-01 12:15 | 10.22151 | -60.97875 | 11319 ft | 205 kts | 141° |
| 2026-05-01 12:15 | 10.21042 | -60.96969 | 11523 ft | 206 kts | 141° |
| 2026-05-01 12:15 | 10.19924 | -60.96054 | 11708 ft | 206 kts | 141° |
| 2026-05-01 12:15 | 10.18792 | -60.95126 | 11921 ft | 207 kts | 141° |
| 2026-05-01 12:16 | 10.17669 | -60.94208 | 12119 ft | 208 kts | 141° |
| 2026-05-01 12:16 | 10.16541 | -60.93287 | 12312 ft | 208 kts | 141° |
| 2026-05-01 12:16 | 10.15412 | -60.92362 | 12500 ft | 209 kts | 141° |
| 2026-05-01 12:16 | 10.14280 | -60.91435 | 12692 ft | 209 kts | 141° |
| 2026-05-01 12:17 | 10.13147 | -60.90509 | 12872 ft | 209 kts | 142° |
| 2026-05-01 12:17 | 10.12010 | -60.89581 | 13030 ft | 211 kts | 141° |
| 2026-05-01 12:17 | 10.10868 | -60.88644 | 13217 ft | 211 kts | 142° |
| 2026-05-01 12:17 | 10.09723 | -60.87712 | 13375 ft | 212 kts | 141° |
| 2026-05-01 12:18 | 10.08572 | -60.86772 | 13541 ft | 213 kts | 141° |
| 2026-05-01 12:18 | 10.07423 | -60.85831 | 13711 ft | 212 kts | 141° |
| 2026-05-01 12:18 | 10.06273 | -60.84890 | 13876 ft | 213 kts | 141° |
| 2026-05-01 12:18 | 10.05120 | -60.83946 | 14029 ft | 213 kts | 141° |
| 2026-05-01 12:19 | 10.03964 | -60.83001 | 14180 ft | 214 kts | 141° |
| 2026-05-01 12:19 | 10.02790 | -60.82042 | 14326 ft | 214 kts | 141° |
| 2026-05-01 12:19 | 10.01631 | -60.81093 | 14467 ft | 214 kts | 141° |
| 2026-05-01 12:19 | 10.00466 | -60.80143 | 14605 ft | 215 kts | 141° |
| 2026-05-01 12:20 | 9.99301 | -60.79191 | 14741 ft | 216 kts | 141° |
| 2026-05-01 12:20 | 9.98137 | -60.78238 | 14894 ft | 215 kts | 141° |
| 2026-05-01 12:20 | 9.96968 | -60.77286 | 15028 ft | 216 kts | 141° |
| 2026-05-01 12:20 | 9.95802 | -60.76334 | 15159 ft | 216 kts | 141° |
| 2026-05-01 12:21 | 9.94629 | -60.75377 | 15281 ft | 216 kts | 141° |
| 2026-05-01 12:21 | 9.93455 | -60.74417 | 15399 ft | 217 kts | 141° |
| 2026-05-01 12:21 | 9.92283 | -60.73459 | 15532 ft | 217 kts | 141° |
| 2026-05-01 12:21 | 9.91105 | -60.72498 | 15649 ft | 217 kts | 141° |
| 2026-05-01 12:22 | 9.89925 | -60.71533 | 15767 ft | 218 kts | 141° |
| 2026-05-01 12:22 | 9.88742 | -60.70569 | 15877 ft | 219 kts | 141° |
| 2026-05-01 12:22 | 9.87560 | -60.69602 | 15992 ft | 218 kts | 141° |
| 2026-05-01 12:22 | 9.86374 | -60.68636 | 16111 ft | 218 kts | 141° |
| 2026-05-01 12:23 | 9.85191 | -60.67669 | 16205 ft | 219 kts | 141° |
| 2026-05-01 12:23 | 9.84006 | -60.66702 | 16306 ft | 219 kts | 141° |
| 2026-05-01 12:23 | 9.82818 | -60.65734 | 16410 ft | 219 kts | 141° |
| 2026-05-01 12:23 | 9.81613 | -60.64750 | 16502 ft | 219 kts | 141° |
| 2026-05-01 12:24 | 9.80423 | -60.63778 | 16589 ft | 220 kts | 141° |
| 2026-05-01 12:24 | 9.79229 | -60.62807 | 16683 ft | 220 kts | 141° |
| 2026-05-01 12:24 | 9.78035 | -60.61833 | 16804 ft | 219 kts | 141° |
| 2026-05-01 12:24 | 9.76847 | -60.60862 | 16900 ft | 220 kts | 141° |
| 2026-05-01 12:25 | 9.75649 | -60.59887 | 16942 ft | 222 kts | 141° |
| 2026-05-01 12:25 | 9.73210 | -60.57898 | 16983 ft | 228 kts | 141° |
| 2026-05-01 12:25 | 9.71965 | -60.56883 | 16987 ft | 231 kts | 141° |
| 2026-05-01 12:26 | 9.70704 | -60.55855 | 16989 ft | 234 kts | 141° |
| 2026-05-01 12:26 | 9.68144 | -60.53771 | 16990 ft | 238 kts | 141° |
| 2026-05-01 12:26 | 9.66851 | -60.52714 | 16990 ft | 239 kts | 141° |
| 2026-05-01 12:27 | 9.65552 | -60.51656 | 16989 ft | 241 kts | 141° |
| 2026-05-01 12:27 | 9.62930 | -60.49525 | 16989 ft | 243 kts | 141° |
| 2026-05-01 12:28 | 9.60272 | -60.47358 | 16989 ft | 244 kts | 141° |
| 2026-05-01 12:28 | 9.58948 | -60.46278 | 16989 ft | 245 kts | 141° |
| 2026-05-01 12:28 | 9.56292 | -60.44113 | 16989 ft | 245 kts | 141° |
| 2026-05-01 12:29 | 9.54961 | -60.43030 | 16989 ft | 245 kts | 141° |
| 2026-05-01 12:29 | 9.53630 | -60.41946 | 16989 ft | 246 kts | 141° |
| 2026-05-01 12:29 | 9.50964 | -60.39777 | 16990 ft | 246 kts | 141° |
| 2026-05-01 12:30 | 9.48290 | -60.37602 | 16989 ft | 247 kts | 141° |
| 2026-05-01 12:30 | 9.46954 | -60.36514 | 16989 ft | 247 kts | 141° |
| 2026-05-01 12:30 | 9.45617 | -60.35425 | 16990 ft | 247 kts | 141° |
| 2026-05-01 12:31 | 9.44277 | -60.34335 | 16989 ft | 247 kts | 141° |
| 2026-05-01 12:31 | 9.42941 | -60.33248 | 16990 ft | 247 kts | 141° |
| 2026-05-01 12:31 | 9.41601 | -60.32160 | 16990 ft | 247 kts | 141° |
| 2026-05-01 12:31 | 9.40242 | -60.31055 | 16990 ft | 247 kts | 141° |
| 2026-05-01 12:32 | 9.38906 | -60.29969 | 16989 ft | 247 kts | 141° |
| 2026-05-01 12:32 | 9.36228 | -60.27790 | 16990 ft | 247 kts | 141° |
| 2026-05-01 12:32 | 9.34886 | -60.26701 | 16990 ft | 247 kts | 141° |
| 2026-05-01 12:33 | 9.33550 | -60.25614 | 16990 ft | 246 kts | 141° |
| 2026-05-01 12:33 | 9.32212 | -60.24527 | 16990 ft | 247 kts | 141° |
| 2026-05-01 12:33 | 9.30873 | -60.23439 | 16990 ft | 247 kts | 141° |
| 2026-05-01 12:33 | 9.29535 | -60.22352 | 16990 ft | 246 kts | 141° |
| 2026-05-01 12:34 | 9.28197 | -60.21266 | 16989 ft | 247 kts | 141° |
| 2026-05-01 12:34 | 9.26859 | -60.20179 | 16989 ft | 247 kts | 141° |
| 2026-05-01 12:34 | 9.25520 | -60.19091 | 16989 ft | 247 kts | 141° |
| 2026-05-01 12:34 | 9.24177 | -60.18002 | 16990 ft | 248 kts | 141° |
| 2026-05-01 12:35 | 9.22835 | -60.16910 | 16990 ft | 248 kts | 141° |
| 2026-05-01 12:35 | 9.21488 | -60.15817 | 16990 ft | 248 kts | 141° |
| 2026-05-01 12:35 | 9.20146 | -60.14726 | 16990 ft | 248 kts | 141° |
| 2026-05-01 12:35 | 9.18801 | -60.13635 | 16990 ft | 248 kts | 141° |
| 2026-05-01 12:36 | 9.17457 | -60.12544 | 16990 ft | 248 kts | 141° |
| 2026-05-01 12:36 | 9.16094 | -60.11437 | 16990 ft | 248 kts | 141° |
| 2026-05-01 12:36 | 9.14745 | -60.10342 | 16990 ft | 248 kts | 141° |
| 2026-05-01 12:36 | 9.13401 | -60.09251 | 16990 ft | 248 kts | 141° |
| 2026-05-01 12:37 | 9.12054 | -60.08159 | 16990 ft | 248 kts | 141° |
| 2026-05-01 12:37 | 9.10709 | -60.07067 | 16990 ft | 248 kts | 141° |
| 2026-05-01 12:37 | 9.09359 | -60.05972 | 16990 ft | 248 kts | 141° |
| 2026-05-01 12:37 | 9.08489 | -60.05267 | 16990 ft | 248 kts | 141° |
| 2026-05-01 12:38 | 9.07595 | -60.04543 | 16990 ft | 249 kts | 141° |
| 2026-05-01 12:38 | 9.06245 | -60.03448 | 16990 ft | 249 kts | 141° |
| 2026-05-01 12:38 | 9.04881 | -60.02340 | 16990 ft | 248 kts | 141° |
| 2026-05-01 12:38 | 9.03533 | -60.01247 | 16990 ft | 248 kts | 141° |
| 2026-05-01 12:39 | 9.02185 | -60.00153 | 16989 ft | 248 kts | 141° |
| 2026-05-01 12:39 | 9.00836 | -59.99060 | 16989 ft | 248 kts | 141° |
| 2026-05-01 12:39 | 8.99489 | -59.97968 | 16990 ft | 248 kts | 141° |
| 2026-05-01 12:39 | 8.98143 | -59.96875 | 16990 ft | 248 kts | 141° |
| 2026-05-01 12:40 | 8.96792 | -59.95780 | 16990 ft | 249 kts | 141° |
| 2026-05-01 12:40 | 8.95444 | -59.94687 | 16990 ft | 248 kts | 141° |
| 2026-05-01 12:40 | 8.94095 | -59.93595 | 16990 ft | 248 kts | 141° |
| 2026-05-01 12:40 | 8.92745 | -59.92503 | 16989 ft | 248 kts | 141° |
| 2026-05-01 12:41 | 8.91392 | -59.91420 | 16989 ft | 248 kts | 142° |
| 2026-05-01 12:41 | 8.90019 | -59.90366 | 16990 ft | 248 kts | 143° |
| 2026-05-01 12:41 | 8.88643 | -59.89319 | 16990 ft | 248 kts | 142° |
| 2026-05-01 12:41 | 8.87268 | -59.88269 | 16990 ft | 247 kts | 142° |
| 2026-05-01 12:42 | 8.85893 | -59.87219 | 16989 ft | 248 kts | 142° |
| 2026-05-01 12:42 | 8.84517 | -59.86169 | 16989 ft | 248 kts | 142° |
| 2026-05-01 12:42 | 8.83144 | -59.85119 | 16989 ft | 248 kts | 142° |
| 2026-05-01 12:42 | 8.81767 | -59.84069 | 16990 ft | 248 kts | 142° |
| 2026-05-01 12:43 | 8.80393 | -59.83019 | 16990 ft | 248 kts | 142° |
| 2026-05-01 12:43 | 8.79019 | -59.81970 | 16990 ft | 248 kts | 142° |
| 2026-05-01 12:43 | 8.77642 | -59.80920 | 16990 ft | 248 kts | 142° |
| 2026-05-01 12:43 | 8.76266 | -59.79869 | 16990 ft | 248 kts | 142° |
| 2026-05-01 12:44 | 8.74886 | -59.78820 | 16990 ft | 248 kts | 142° |
| 2026-05-01 12:44 | 8.73509 | -59.77769 | 16990 ft | 248 kts | 142° |
| 2026-05-01 12:44 | 8.70756 | -59.75665 | 16983 ft | 248 kts | 142° |
| 2026-05-01 12:45 | 8.67981 | -59.73548 | 16982 ft | 248 kts | 142° |
| 2026-05-01 12:45 | 8.66601 | -59.72497 | 16983 ft | 248 kts | 142° |
| 2026-05-01 12:45 | 8.65227 | -59.71449 | 16980 ft | 248 kts | 142° |
| 2026-05-01 12:46 | 8.63844 | -59.70394 | 16982 ft | 248 kts | 142° |
| 2026-05-01 12:46 | 8.62466 | -59.69344 | 16982 ft | 248 kts | 142° |
| 2026-05-01 12:46 | 8.61086 | -59.68292 | 16983 ft | 248 kts | 142° |
| 2026-05-01 12:46 | 8.59711 | -59.67239 | 16982 ft | 248 kts | 142° |
| 2026-05-01 12:47 | 8.58315 | -59.66181 | 16982 ft | 248 kts | 143° |
| 2026-05-01 12:47 | 8.56925 | -59.65146 | 16971 ft | 248 kts | 143° |
| 2026-05-01 12:47 | 8.55537 | -59.64109 | 16982 ft | 248 kts | 143° |
| 2026-05-01 12:47 | 8.54151 | -59.63071 | 16975 ft | 248 kts | 142° |
| 2026-05-01 12:48 | 8.52771 | -59.62025 | 16983 ft | 248 kts | 142° |
| 2026-05-01 12:48 | 8.51393 | -59.60977 | 16982 ft | 248 kts | 142° |
| 2026-05-01 12:48 | 8.50014 | -59.59926 | 16981 ft | 248 kts | 142° |
| 2026-05-01 12:48 | 8.48637 | -59.58878 | 16982 ft | 248 kts | 142° |
| 2026-05-01 12:49 | 8.47255 | -59.57824 | 16982 ft | 248 kts | 142° |
| 2026-05-01 12:49 | 8.45876 | -59.56775 | 16982 ft | 248 kts | 142° |
| 2026-05-01 12:49 | 8.44495 | -59.55724 | 16982 ft | 248 kts | 142° |
| 2026-05-01 12:49 | 8.43117 | -59.54674 | 16981 ft | 248 kts | 142° |
| 2026-05-01 12:50 | 8.41739 | -59.53625 | 16980 ft | 248 kts | 142° |
| 2026-05-01 12:50 | 8.40352 | -59.52571 | 16932 ft | 250 kts | 142° |
| 2026-05-01 12:50 | 8.38950 | -59.51503 | 16957 ft | 249 kts | 142° |
| 2026-05-01 12:50 | 8.37572 | -59.50452 | 16970 ft | 248 kts | 142° |
| 2026-05-01 12:51 | 8.36191 | -59.49401 | 16977 ft | 248 kts | 142° |
| 2026-05-01 12:51 | 8.34794 | -59.48340 | 16981 ft | 248 kts | 142° |
| 2026-05-01 12:51 | 8.32044 | -59.46247 | 16980 ft | 248 kts | 142° |
| 2026-05-01 12:52 | 8.30666 | -59.45198 | 16983 ft | 248 kts | 142° |
| 2026-05-01 12:52 | 8.27903 | -59.43098 | 16974 ft | 248 kts | 142° |
| 2026-05-01 12:52 | 8.26524 | -59.42050 | 16982 ft | 249 kts | 142° |
| 2026-05-01 12:53 | 8.23761 | -59.39944 | 16982 ft | 249 kts | 142° |
| 2026-05-01 12:53 | 8.22378 | -59.38894 | 16982 ft | 249 kts | 142° |
| 2026-05-01 12:53 | 8.20997 | -59.37843 | 16982 ft | 249 kts | 142° |
| 2026-05-01 12:54 | 8.19613 | -59.36793 | 16981 ft | 248 kts | 142° |
| 2026-05-01 12:54 | 8.16854 | -59.34694 | 16983 ft | 248 kts | 142° |
| 2026-05-01 12:54 | 8.15475 | -59.33645 | 16976 ft | 248 kts | 142° |
| 2026-05-01 12:55 | 8.12712 | -59.31548 | 16983 ft | 248 kts | 142° |
| 2026-05-01 12:55 | 8.11335 | -59.30501 | 16982 ft | 249 kts | 142° |
| 2026-05-01 12:55 | 8.09953 | -59.29450 | 16982 ft | 248 kts | 142° |
| 2026-05-01 12:56 | 8.08575 | -59.28403 | 16982 ft | 248 kts | 142° |
| 2026-05-01 12:56 | 8.07176 | -59.27342 | 16982 ft | 249 kts | 142° |
| 2026-05-01 12:56 | 8.05794 | -59.26291 | 16982 ft | 248 kts | 142° |
| 2026-05-01 12:56 | 8.04412 | -59.25242 | 16983 ft | 249 kts | 142° |
| 2026-05-01 12:57 | 8.03033 | -59.24193 | 16982 ft | 249 kts | 142° |
| 2026-05-01 12:57 | 8.00273 | -59.22097 | 16981 ft | 248 kts | 142° |
| 2026-05-01 12:57 | 7.98890 | -59.21047 | 16980 ft | 248 kts | 142° |
| 2026-05-01 12:58 | 7.97511 | -59.20000 | 16982 ft | 248 kts | 142° |
| 2026-05-01 12:58 | 7.96132 | -59.18953 | 16983 ft | 248 kts | 142° |
| 2026-05-01 12:58 | 7.94749 | -59.17905 | 16984 ft | 248 kts | 142° |
| 2026-05-01 12:59 | 7.91993 | -59.15812 | 16982 ft | 248 kts | 142° |
| 2026-05-01 12:59 | 7.90616 | -59.14769 | 16981 ft | 248 kts | 142° |
| 2026-05-01 12:59 | 7.87864 | -59.12677 | 16972 ft | 247 kts | 142° |
| 2026-05-01 13:00 | 7.85114 | -59.10593 | 16982 ft | 247 kts | 142° |
| 2026-05-01 13:00 | 7.83741 | -59.09552 | 16975 ft | 247 kts | 142° |
| 2026-05-01 13:01 | 7.80977 | -59.07454 | 16961 ft | 247 kts | 142° |
| 2026-05-01 13:01 | 7.79623 | -59.06428 | 16982 ft | 247 kts | 142° |
| 2026-05-01 13:01 | 7.76865 | -59.04337 | 16990 ft | 247 kts | 142° |
| 2026-05-01 13:02 | 7.75492 | -59.03296 | 16989 ft | 247 kts | 142° |
| 2026-05-01 13:07 | 7.44616 | -58.79911 | 13890 ft | 279 kts | 142° |
| 2026-05-01 13:07 | 7.43065 | -58.78736 | 13716 ft | 279 kts | 142° |
| 2026-05-01 13:07 | 7.41515 | -58.77565 | 13543 ft | 279 kts | 142° |
| 2026-05-01 13:08 | 7.39967 | -58.76392 | 13369 ft | 279 kts | 142° |
| 2026-05-01 13:08 | 7.38413 | -58.75216 | 13197 ft | 279 kts | 142° |
| 2026-05-01 13:08 | 7.36856 | -58.74041 | 13016 ft | 279 kts | 142° |
| 2026-05-01 13:08 | 7.35302 | -58.72863 | 12852 ft | 279 kts | 142° |
| 2026-05-01 13:09 | 7.33749 | -58.71688 | 12681 ft | 280 kts | 142° |
| 2026-05-01 13:09 | 7.32186 | -58.70508 | 12506 ft | 280 kts | 142° |
| 2026-05-01 13:09 | 7.30629 | -58.69331 | 12335 ft | 279 kts | 142° |
| 2026-05-01 13:09 | 7.29076 | -58.68156 | 12166 ft | 280 kts | 142° |
| 2026-05-01 13:10 | 7.27520 | -58.66978 | 11989 ft | 280 kts | 142° |
| 2026-05-01 13:10 | 7.25964 | -58.65803 | 11814 ft | 280 kts | 142° |
| 2026-05-01 13:10 | 7.24383 | -58.64607 | 11639 ft | 280 kts | 142° |
| 2026-05-01 13:10 | 7.22825 | -58.63432 | 11461 ft | 280 kts | 142° |
| 2026-05-01 13:11 | 7.21274 | -58.62257 | 11294 ft | 279 kts | 142° |
| 2026-05-01 13:11 | 7.19718 | -58.61082 | 11121 ft | 279 kts | 142° |
| 2026-05-01 13:11 | 7.18166 | -58.59907 | 10957 ft | 280 kts | 142° |
| 2026-05-01 13:11 | 7.16608 | -58.58730 | 10776 ft | 280 kts | 142° |
| 2026-05-01 13:12 | 7.15052 | -58.57558 | 10602 ft | 279 kts | 142° |
| 2026-05-01 13:12 | 7.13501 | -58.56386 | 10436 ft | 279 kts | 142° |
| 2026-05-01 13:12 | 7.11951 | -58.55214 | 10258 ft | 279 kts | 142° |
| 2026-05-01 13:12 | 7.10404 | -58.54044 | 10090 ft | 278 kts | 142° |
| 2026-05-01 13:13 | 7.08852 | -58.52874 | 9911 ft | 278 kts | 142° |
| 2026-05-01 13:13 | 7.07306 | -58.51706 | 9743 ft | 278 kts | 142° |
| 2026-05-01 13:13 | 7.05755 | -58.50536 | 9563 ft | 278 kts | 142° |
| 2026-05-01 13:13 | 7.04187 | -58.49349 | 9408 ft | 278 kts | 142° |
| 2026-05-01 13:14 | 7.02623 | -58.48166 | 9219 ft | 279 kts | 142° |
| 2026-05-01 13:14 | 7.01093 | -58.47014 | 9047 ft | 279 kts | 142° |
| 2026-05-01 13:14 | 6.99523 | -58.45829 | 8871 ft | 279 kts | 142° |
| 2026-05-01 13:14 | 6.97994 | -58.44676 | 8701 ft | 279 kts | 141° |
| 2026-05-01 13:15 | 6.96423 | -58.43485 | 8547 ft | 279 kts | 142° |
| 2026-05-01 13:15 | 6.94869 | -58.42314 | 8370 ft | 279 kts | 142° |
| 2026-05-01 13:15 | 6.93321 | -58.41146 | 8191 ft | 278 kts | 141° |
| 2026-05-01 13:15 | 6.91770 | -58.39977 | 8022 ft | 278 kts | 141° |
| 2026-05-01 13:16 | 6.90223 | -58.38811 | 7841 ft | 277 kts | 141° |
| 2026-05-01 13:16 | 6.88681 | -58.37647 | 7673 ft | 277 kts | 141° |
| 2026-05-01 13:16 | 6.87162 | -58.36502 | 7507 ft | 277 kts | 141° |
| 2026-05-01 13:17 | 6.82602 | -58.33067 | 6996 ft | 266 kts | 141° |
| 2026-05-01 13:17 | 6.81184 | -58.31996 | 6825 ft | 244 kts | 141° |
| 2026-05-01 13:18 | 6.78654 | -58.30082 | 6482 ft | 214 kts | 140° |
| 2026-05-01 13:18 | 6.77489 | -58.29208 | 6309 ft | 204 kts | 140° |
| 2026-05-01 13:18 | 6.76383 | -58.28370 | 6149 ft | 195 kts | 140° |
| 2026-05-01 13:18 | 6.75314 | -58.27565 | 5952 ft | 188 kts | 140° |
| 2026-05-01 13:19 | 6.74273 | -58.26781 | 5772 ft | 181 kts | 140° |
| 2026-05-01 13:19 | 6.73284 | -58.26033 | 5596 ft | 175 kts | 140° |
| 2026-05-01 13:19 | 6.71509 | -58.24592 | 5261 ft | 154 kts | 118° |
| 2026-05-01 13:20 | 6.71371 | -58.23603 | 5112 ft | 139 kts | 79° |
| 2026-05-01 13:20 | 6.71661 | -58.22749 | 5002 ft | 119 kts | 64° |
| 2026-05-01 13:20 | 6.72091 | -58.22038 | 4611 ft | 120 kts | 53° |
| 2026-05-01 13:21 | 6.73153 | -58.20756 | 4019 ft | 118 kts | 44° |
| 2026-05-01 13:21 | 6.73722 | -58.20129 | 3605 ft | 124 kts | 52° |
| 2026-05-01 13:21 | 6.74241 | -58.19453 | 3215 ft | 120 kts | 54° |
| 2026-05-01 13:21 | 6.74724 | -58.18756 | 2821 ft | 121 kts | 54° |
| 2026-05-01 13:22 | 6.75178 | -58.18055 | 2499 ft | 118 kts | 61° |
| 2026-05-01 13:22 | 6.75624 | -58.17350 | 2268 ft | 122 kts | 55° |
| 2026-05-01 13:22 | 6.76140 | -58.16622 | 2133 ft | 133 kts | 54° |
| 2026-05-01 13:22 | 6.76680 | -58.15896 | 2061 ft | 125 kts | 52° |
| 2026-05-01 13:23 | 6.77198 | -58.15205 | 1826 ft | 121 kts | 53° |
| 2026-05-01 13:23 | 6.77740 | -58.14522 | 1425 ft | 126 kts | 50° |
| 2026-05-01 13:23 | 6.78280 | -58.13850 | 1038 ft | 120 kts | 53° |
| 2026-05-01 13:23 | 6.78758 | -58.13176 | 738 ft | 117 kts | 54° |
| 2026-05-01 13:24 | 6.79246 | -58.12534 | 491 ft | 116 kts | 51° |
| 2026-05-01 13:24 | 6.79751 | -58.11866 | 281 ft | 120 kts | 53° |
| 2026-05-01 13:24 | 6.80254 | -58.11209 | 64 ft | 116 kts | 52° |
| 2026-05-01 13:25 | 6.80764 | -58.10534 | 26 ft | 9 kts | 59° |
| 2026-05-01 13:25 | 6.80763 | -58.10528 | 26 ft | 1 kts | 105° |
| 2026-05-01 13:25 | 6.80759 | -58.10511 | 26 ft | 4 kts | 118° |
| 2026-05-01 13:25 | 6.80749 | -58.10501 | 26 ft | 3 kts | 131° |
| 2026-05-01 13:26 | 6.80726 | -58.10478 | 26 ft | 6 kts | 137° |
| 2026-05-01 13:26 | 6.80695 | -58.10442 | 26 ft | 7 kts | 126° |
| 2026-05-01 13:26 | 6.80664 | -58.10445 | 26 ft | 5 kts | 214° |
| 2026-05-01 13:26 | 6.80633 | -58.10457 | 26 ft | 1 kts | 162° |
| 2026-05-01 13:27 | 6.80632 | -58.10457 | 26 ft | 0 kts | 161° |
| 2026-05-01 13:29 | 6.80632 | -58.10454 | 26 ft | 0 kts | 116° |
| 2026-05-01 13:30 | 6.80643 | -58.10447 | 26 ft | 2 kts | 19° |
| 2026-05-01 13:31 | 6.80651 | -58.10440 | 26 ft | 0 kts | 46° |
| 2026-05-01 13:41 | 6.80650 | -58.10440 | 26 ft | 0 kts | 46° |
| 2026-05-01 14:03 | 6.80650 | -58.10441 | 26 ft | 0 kts | 46° |
| 2026-05-01 14:24 | 6.80649 | -58.10441 | 26 ft | 0 kts | 46° |